Аэропорт: Ханты-Мансийск. Ханты-Мансийск

ICAO: USHH

METAR:
2021-10-23 02:00:00
USHH 230200Z 19005MPS 2600 -RA BR BKN003 03/03 Q0987 R24/290050 TEMPO 1000 RA BR OVC002
METAR:
2021-10-22 22:33:00
TAF USHH 222233Z 2300/2324 20005G14MPS 5000 -SHRA BR BKN003 OVC010CB TEMPO 2300/2306 0700 +SHRA FG BKN002 OVC010CB FM230600 25005G14MPS 9999 BKN016CB TEMPO 2306/2312 5000 -SHRA SCT004 BKN016CB